Time;durP1;ratioP1;P1;durP2;ratioP2;P2;SDS_P1;SDS_P2;PMS_P1;PMS_P2;Temp;Humidity;BMP_temperature;BMP_pressure;BME280_temperature;BME280_humidity;BME280_pressure;Samples;Min_cycle;Max_cycle;Signal;HPM_P1;HPM_P2
2021/08/17 00:01:35;;;;;;;1999.90;999.90;;;14.70;99.90;;;;;;5040628;28;20821;-84
2021/08/17 00:04:02;;;;;;;1999.90;999.90;;;14.80;99.90;;;;;;5040527;28;20454;-82
2021/08/17 00:06:29;;;;;;;1999.90;999.90;;;14.70;99.90;;;;;;5039753;28;20454;-83
2021/08/17 00:08:56;;;;;;;1999.90;999.90;;;14.60;99.90;;;;;;5040740;28;20482;-82
2021/08/17 00:11:23;;;;;;;1999.90;999.90;;;14.70;99.90;;;;;;5041025;28;20967;-83
2021/08/17 00:13:50;;;;;;;1999.90;999.90;;;14.60;99.90;;;;;;5040818;28;20448;-83
2021/08/17 00:16:18;;;;;;;1999.90;999.90;;;14.60;99.90;;;;;;5040686;28;20572;-83
2021/08/17 00:18:45;;;;;;;1999.90;999.90;;;14.60;99.90;;;;;;5040767;28;20472;-83
2021/08/17 00:21:14;;;;;;;1999.90;999.90;;;14.60;99.90;;;;;;5040320;28;20540;-83
2021/08/17 00:23:41;;;;;;;1999.90;999.90;;;14.60;99.90;;;;;;5038997;28;20838;-83
2021/08/17 00:26:07;;;;;;;1999.90;999.90;;;14.50;99.90;;;;;;5039658;28;21036;-81
2021/08/17 00:28:34;;;;;;;1999.90;999.90;;;14.50;99.90;;;;;;5040205;28;20482;-82
2021/08/17 00:31:01;;;;;;;1999.90;999.90;;;14.50;99.90;;;;;;5040202;28;20458;-84
2021/08/17 00:33:30;;;;;;;1999.90;999.90;;;14.60;99.90;;;;;;5039894;28;20446;-84
2021/08/17 00:35:57;;;;;;;1999.90;999.90;;;14.50;99.90;;;;;;5039223;28;20504;-83
2021/08/17 00:38:25;;;;;;;1999.90;999.90;;;14.50;99.90;;;;;;5038672;28;20491;-83
2021/08/17 00:40:52;;;;;;;1999.90;999.90;;;14.50;99.90;;;;;;5037064;28;20454;-84
2021/08/17 00:43:19;;;;;;;1999.90;999.90;;;14.40;99.90;;;;;;5040229;28;20462;-82
2021/08/17 00:45:46;;;;;;;1999.90;999.90;;;14.40;99.90;;;;;;5038208;28;20460;-81
2021/08/17 00:48:13;;;;;;;1999.90;999.90;;;14.50;99.90;;;;;;5039656;28;20863;-83
2021/08/17 00:50:41;;;;;;;1999.90;999.90;;;14.50;99.90;;;;;;5040492;28;20460;-84
2021/08/17 00:53:08;;;;;;;1999.90;999.90;;;14.40;99.90;;;;;;5035082;28;20451;-82
2021/08/17 00:55:35;;;;;;;1999.90;999.90;;;14.40;99.90;;;;;;5041077;28;20451;-83
2021/08/17 00:58:02;;;;;;;1999.90;999.90;;;14.40;99.90;;;;;;5039377;28;20491;-84
2021/08/17 01:00:29;;;;;;;1999.90;999.90;;;14.40;99.90;;;;;;5037351;28;20472;-83
2021/08/17 01:02:56;;;;;;;1999.90;999.90;;;14.40;99.90;;;;;;5024923;28;20470;-81
2021/08/17 01:05:26;;;;;;;1999.90;999.90;;;14.30;99.90;;;;;;5051696;28;20524;-80
2021/08/17 01:07:55;;;;;;;1999.90;999.90;;;14.30;99.90;;;;;;5051691;28;20472;-82
2021/08/17 01:10:22;;;;;;;1999.90;999.90;;;14.20;99.90;;;;;;5052284;28;20468;-80
2021/08/17 01:12:48;;;;;;;1999.90;999.90;;;14.20;99.90;;;;;;5043791;28;20879;-82
2021/08/17 01:15:15;;;;;;;1999.90;999.90;;;14.20;99.90;;;;;;5037507;28;20553;-82
2021/08/17 01:17:43;;;;;;;1999.90;999.90;;;14.20;99.90;;;;;;5035895;28;20491;-82
2021/08/17 01:20:14;;;;;;;1999.90;999.90;;;14.20;99.90;;;;;;5036523;28;20484;-83
2021/08/17 01:22:42;;;;;;;1999.90;999.90;;;14.20;99.90;;;;;;5036201;28;20496;-82
2021/08/17 01:25:11;;;;;;;1999.90;999.90;;;14.20;99.90;;;;;;5036254;28;20469;-83
2021/08/17 01:27:40;;;;;;;1999.90;999.90;;;14.20;99.90;;;;;;5036293;28;20544;-81
2021/08/17 01:30:08;;;;;;;1999.90;999.90;;;14.20;99.90;;;;;;5036400;28;20479;-84
2021/08/17 01:32:35;;;;;;;1999.90;999.90;;;14.20;99.90;;;;;;5036477;28;21160;-82
2021/08/17 01:35:02;;;;;;;1999.90;999.90;;;14.10;99.90;;;;;;5035999;28;20546;-82
2021/08/17 01:37:29;;;;;;;1999.90;999.90;;;14.10;99.90;;;;;;5035347;28;20891;-82
2021/08/17 01:40:00;;;;;;;1999.90;999.90;;;14.00;99.90;;;;;;5035243;28;20486;-82
2021/08/17 01:42:27;;;;;;;1999.90;999.90;;;13.90;99.90;;;;;;5036075;28;20452;-82
2021/08/17 01:44:56;;;;;;;1999.90;999.90;;;13.90;99.90;;;;;;5036432;28;20554;-83
2021/08/17 01:47:23;;;;;;;1999.90;999.90;;;13.80;99.90;;;;;;5036975;28;20867;-81
2021/08/17 01:49:50;;;;;;;1999.90;999.90;;;13.90;99.90;;;;;;5035751;28;21253;-81
2021/08/17 01:52:17;;;;;;;1999.90;999.90;;;13.90;99.90;;;;;;5034553;28;20470;-82
2021/08/17 01:54:44;;;;;;;1999.90;999.90;;;13.80;99.90;;;;;;5034990;28;20498;-80
2021/08/17 01:57:11;;;;;;;1999.90;999.90;;;13.80;99.90;;;;;;5034739;28;20483;-84
2021/08/17 01:59:38;;;;;;;1999.90;999.90;;;13.70;99.90;;;;;;5035461;28;20811;-82
2021/08/17 02:02:08;;;;;;;1999.90;999.90;;;13.60;99.90;;;;;;5031306;28;20970;-82
2021/08/17 02:04:35;;;;;;;1999.90;999.90;;;13.70;99.90;;;;;;5034392;28;20458;-83
2021/08/17 02:07:03;;;;;;;1999.90;999.90;;;13.70;99.90;;;;;;5028321;28;20805;-82
2021/08/17 02:09:30;;;;;;;1999.90;999.90;;;13.70;99.90;;;;;;5034538;28;20475;-82
2021/08/17 02:11:57;;;;;;;1999.90;999.90;;;13.60;99.90;;;;;;5032175;28;20456;-82
2021/08/17 02:14:24;;;;;;;1999.90;999.90;;;13.70;99.90;;;;;;5035152;28;20464;-82
2021/08/17 02:16:50;;;;;;;1999.90;999.90;;;13.70;99.90;;;;;;5034527;28;20806;-84
2021/08/17 02:19:19;;;;;;;1999.90;999.90;;;13.70;99.90;;;;;;5034624;28;20565;-83
2021/08/17 02:21:45;;;;;;;1999.90;999.90;;;13.60;99.90;;;;;;5034114;28;20475;-84
2021/08/17 02:24:12;;;;;;;1999.90;999.90;;;13.70;99.90;;;;;;5034271;28;20463;-83
2021/08/17 02:26:39;;;;;;;1999.90;999.90;;;13.60;99.90;;;;;;5033875;28;20456;-82
2021/08/17 02:29:06;;;;;;;1999.90;999.90;;;13.80;99.90;;;;;;5028935;28;20497;-82
2021/08/17 02:31:33;;;;;;;1999.90;999.90;;;13.80;99.90;;;;;;5032978;28;20462;-83
2021/08/17 02:33:59;;;;;;;1999.90;999.90;;;13.90;99.90;;;;;;5034124;28;20460;-82
2021/08/17 02:36:28;;;;;;;1999.90;999.90;;;13.90;99.90;;;;;;5034632;28;20444;-83
2021/08/17 02:38:54;;;;;;;1999.90;999.90;;;13.90;99.90;;;;;;5034701;28;20499;-83
2021/08/17 02:41:21;;;;;;;1999.90;999.90;;;13.80;99.90;;;;;;5034391;28;20474;-81
2021/08/17 02:43:48;;;;;;;1999.90;999.90;;;13.80;99.90;;;;;;5034310;28;20459;-80
2021/08/17 02:46:15;;;;;;;1999.90;999.90;;;13.70;99.90;;;;;;5034340;28;20455;-82
2021/08/17 02:48:42;;;;;;;1999.90;999.90;;;13.70;99.90;;;;;;5033895;28;21025;-81
2021/08/17 02:51:09;;;;;;;1999.90;999.90;;;13.60;99.90;;;;;;5034025;28;20457;-81
2021/08/17 02:53:37;;;;;;;1999.90;999.90;;;13.60;99.90;;;;;;5034486;28;20452;-83
2021/08/17 02:56:04;;;;;;;1999.90;999.90;;;13.70;99.90;;;;;;5034283;28;20456;-82
2021/08/17 02:58:31;;;;;;;1999.90;999.90;;;13.70;99.90;;;;;;5045508;28;20491;-81
2021/08/17 03:00:58;;;;;;;1999.90;999.90;;;13.60;99.90;;;;;;5048648;28;20438;-83
2021/08/17 03:03:24;;;;;;;1999.90;999.90;;;13.60;99.90;;;;;;5030314;28;20451;-83
2021/08/17 03:05:51;;;;;;;1999.90;999.90;;;13.50;99.90;;;;;;5050308;28;20516;-83
2021/08/17 03:08:18;;;;;;;1999.90;999.90;;;13.50;99.90;;;;;;5047137;28;20519;-83
2021/08/17 03:10:46;;;;;;;1999.90;999.90;;;13.40;99.90;;;;;;5035147;28;20459;-81
2021/08/17 03:13:13;;;;;;;1999.90;999.90;;;13.40;99.90;;;;;;5035919;28;20816;-83
2021/08/17 03:15:40;;;;;;;1999.90;999.90;;;13.50;99.90;;;;;;5047482;28;20541;-84
2021/08/17 03:18:08;;;;;;;1999.90;999.90;;;13.50;99.90;;;;;;5040951;28;20490;-84
2021/08/17 03:20:37;;;;;;;1999.90;999.90;;;13.60;99.90;;;;;;5040977;28;20463;-85
2021/08/17 03:23:05;;;;;;;1999.90;999.90;;;13.50;99.90;;;;;;5038746;28;20458;-81
2021/08/17 03:25:32;;;;;;;1999.90;999.90;;;13.50;99.90;;;;;;5039516;28;20452;-83
2021/08/17 03:28:00;;;;;;;1999.90;999.90;;;13.60;99.90;;;;;;5040740;28;20454;-83
2021/08/17 03:30:28;;;;;;;1999.90;999.90;;;13.50;99.90;;;;;;5039366;28;20485;-83
2021/08/17 03:32:55;;;;;;;1999.90;999.90;;;13.50;99.90;;;;;;5038320;28;21020;-83
2021/08/17 03:35:22;;;;;;;1999.90;999.90;;;13.60;99.90;;;;;;5039024;28;20462;-84
2021/08/17 03:37:49;;;;;;;1999.90;999.90;;;13.50;99.90;;;;;;5038254;28;20504;-84
2021/08/17 03:40:19;;;;;;;1999.90;999.90;;;13.50;99.90;;;;;;5039093;28;20478;-84
2021/08/17 03:42:45;;;;;;;1999.90;999.90;;;13.40;99.90;;;;;;5038171;28;20456;-83
2021/08/17 03:45:19;;;;;;;1999.90;999.90;;;13.40;99.90;;;;;;5037838;28;20444;-84
2021/08/17 03:47:47;;;;;;;1999.90;999.90;;;13.50;99.90;;;;;;5037534;28;20455;-83
2021/08/17 03:50:15;;;;;;;1999.90;999.90;;;13.50;99.90;;;;;;5038685;28;20473;-85
2021/08/17 03:52:43;;;;;;;1999.90;999.90;;;13.50;99.90;;;;;;5037685;28;20965;-86
2021/08/17 03:55:11;;;;;;;1999.90;999.90;;;13.50;99.90;;;;;;5035642;28;20542;-83
2021/08/17 03:57:38;;;;;;;1999.90;999.90;;;13.40;99.90;;;;;;5039142;28;20485;-83
2021/08/17 04:00:07;;;;;;;1999.90;999.90;;;13.40;99.90;;;;;;5039767;28;20995;-83
2021/08/17 04:02:35;;;;;;;1999.90;999.90;;;13.40;99.90;;;;;;5040642;28;20455;-83
2021/08/17 04:05:02;;;;;;;1999.90;999.90;;;13.50;99.90;;;;;;5040339;28;20456;-83
2021/08/17 04:07:29;;;;;;;1999.90;999.90;;;13.40;99.90;;;;;;5040667;28;20453;-82
2021/08/17 04:09:57;;;;;;;1999.90;999.90;;;13.30;99.90;;;;;;5041538;28;20469;-82
2021/08/17 04:12:24;;;;;;;1999.90;999.90;;;13.40;99.90;;;;;;5041606;28;20458;-84
2021/08/17 04:14:51;;;;;;;1999.90;999.90;;;13.40;99.90;;;;;;5042487;28;20462;-83
2021/08/17 04:17:18;;;;;;;1999.90;999.90;;;13.40;99.90;;;;;;5042127;28;20459;-83
2021/08/17 04:19:47;;;;;;;1999.90;999.90;;;13.40;99.90;;;;;;5041358;28;20468;-84
2021/08/17 04:22:14;;;;;;;1999.90;999.90;;;13.50;99.90;;;;;;5040987;28;20963;-83
2021/08/17 04:24:41;;;;;;;1999.90;999.90;;;13.50;99.90;;;;;;5041131;28;20455;-84
2021/08/17 04:27:08;;;;;;;1999.90;999.90;;;13.50;99.90;;;;;;5041688;28;20463;-82
2021/08/17 04:29:37;;;;;;;1999.90;999.90;;;13.50;99.90;;;;;;5073624;22;20489;-85
2021/08/17 04:32:05;;;;;;;1999.90;999.90;;;13.50;99.90;;;;;;5088695;28;20458;-85
2021/08/17 04:34:31;;;;;;;1999.90;999.90;;;13.60;99.90;;;;;;5100477;28;20489;-85
2021/08/17 04:37:00;;;;;;;1999.90;999.90;;;13.60;99.90;;;;;;5098021;28;20930;-87
2021/08/17 04:39:27;;;;;;;1999.90;999.90;;;13.70;99.90;;;;;;5095701;28;20486;-85
2021/08/17 04:41:54;;;;;;;1999.90;999.90;;;13.50;99.90;;;;;;5095821;28;20452;-85
2021/08/17 04:44:20;;;;;;;1999.90;999.90;;;13.70;99.90;;;;;;5095674;28;20452;-85
2021/08/17 04:46:47;;;;;;;1999.90;999.90;;;13.70;99.90;;;;;;5091817;28;20535;-85
2021/08/17 04:49:14;;;;;;;1999.90;999.90;;;13.80;99.90;;;;;;5081952;28;20956;-85
2021/08/17 04:51:41;;;;;;;1999.90;999.90;;;13.80;99.90;;;;;;5099048;28;20500;-85
2021/08/17 04:54:09;;;;;;;1999.90;999.90;;;13.70;99.90;;;;;;5110618;28;20450;-86
2021/08/17 04:56:36;;;;;;;1999.90;999.90;;;13.80;99.90;;;;;;5093631;28;20453;-85
2021/08/17 04:59:03;;;;;;;1999.90;999.90;;;13.80;99.90;;;;;;5094137;28;20485;-83
2021/08/17 05:01:30;;;;;;;1999.90;999.90;;;15.80;99.90;;;;;;5073965;28;20486;-85
2021/08/17 05:03:57;;;;;;;1999.90;999.90;;;16.80;99.90;;;;;;5072132;28;20544;-83
2021/08/17 05:06:24;;;;;;;1999.90;999.90;;;17.30;99.90;;;;;;5077960;28;21037;-83
2021/08/17 05:08:51;;;;;;;1999.90;999.90;;;17.50;99.90;;;;;;5073893;28;20451;-86
2021/08/17 05:11:19;;;;;;;1999.90;999.90;;;17.50;99.90;;;;;;5085688;28;20479;-85
2021/08/17 05:13:46;;;;;;;1999.90;999.90;;;17.00;99.90;;;;;;5092767;28;20448;-86
2021/08/17 05:16:12;;;;;;;1999.90;999.90;;;16.50;99.90;;;;;;5095466;28;20822;-86
2021/08/17 05:18:39;;;;;;;1999.90;999.90;;;16.20;99.90;;;;;;5093655;28;20488;-85
2021/08/17 05:21:06;;;;;;;1999.90;999.90;;;16.00;99.90;;;;;;5079814;28;20481;-86
2021/08/17 05:23:33;;;;;;;1999.90;999.90;;;16.00;99.90;;;;;;5074342;28;20460;-86
2021/08/17 05:26:00;;;;;;;1999.90;999.90;;;15.90;99.90;;;;;;5089339;28;20898;-85
2021/08/17 05:28:28;;;;;;;1999.90;999.90;;;15.80;99.90;;;;;;5096368;28;20548;-85
2021/08/17 05:30:54;;;;;;;1999.90;999.90;;;15.70;99.90;;;;;;5083004;28;20849;-85
2021/08/17 05:33:22;;;;;;;1999.90;999.90;;;15.60;99.90;;;;;;5094839;28;20479;-85
2021/08/17 05:35:49;;;;;;;1999.90;999.90;;;15.50;99.90;;;;;;5096716;28;20454;-85
2021/08/17 05:38:16;;;;;;;1999.90;999.90;;;15.30;99.90;;;;;;5098803;28;20477;-85
2021/08/17 05:40:43;;;;;;;1999.90;999.90;;;15.30;99.90;;;;;;5097318;28;20505;-85
2021/08/17 05:43:10;;;;;;;1999.90;999.90;;;15.20;99.90;;;;;;5086840;28;20448;-84
2021/08/17 05:45:38;;;;;;;1999.90;999.90;;;15.10;99.90;;;;;;5082272;28;20451;-86
2021/08/17 05:48:05;;;;;;;1999.90;999.90;;;14.80;99.90;;;;;;5088855;28;20453;-83
2021/08/17 05:50:32;;;;;;;1999.90;999.90;;;14.80;99.90;;;;;;5076467;28;20467;-84
2021/08/17 05:52:58;;;;;;;1999.90;999.90;;;14.70;99.90;;;;;;5090987;28;21021;-86
2021/08/17 05:55:25;;;;;;;1999.90;999.90;;;14.70;99.90;;;;;;5099547;28;20486;-86
2021/08/17 05:57:57;;;;;;;1999.90;999.90;;;14.70;99.90;;;;;;5100361;28;20476;-86
2021/08/17 06:00:24;;;;;;;1999.90;999.90;;;14.80;99.90;;;;;;5097150;28;20485;-86
2021/08/17 06:02:52;;;;;;;1999.90;999.90;;;14.90;99.90;;;;;;5093024;28;20533;-85
2021/08/17 06:05:19;;;;;;;1999.90;999.90;;;14.80;99.90;;;;;;5072999;28;20457;-85
2021/08/17 06:07:47;;;;;;;1999.90;999.90;;;14.90;99.90;;;;;;5072491;28;20461;-85
2021/08/17 06:10:14;;;;;;;1999.90;999.90;;;15.00;99.90;;;;;;5077855;28;20489;-85
2021/08/17 06:12:41;;;;;;;1999.90;999.90;;;14.90;99.90;;;;;;5079051;28;20517;-84
2021/08/17 06:15:09;;;;;;;1999.90;999.90;;;15.00;99.90;;;;;;5077281;28;20462;-85
2021/08/17 06:17:37;;;;;;;1999.90;999.90;;;15.00;99.90;;;;;;5072093;28;20448;-85
2021/08/17 06:20:06;;;;;;;1999.90;999.90;;;15.00;99.90;;;;;;5073158;28;20489;-85
2021/08/17 06:22:33;;;;;;;1999.90;999.90;;;15.00;99.90;;;;;;5072658;28;20446;-86
2021/08/17 06:25:01;;;;;;;1999.90;999.90;;;14.80;99.90;;;;;;5074831;28;20456;-85
2021/08/17 06:27:28;;;;;;;1999.90;999.90;;;14.90;99.90;;;;;;5072763;28;20452;-85
2021/08/17 06:29:55;;;;;;;1999.90;999.90;;;14.80;99.90;;;;;;5079191;28;20479;-85
2021/08/17 06:32:22;;;;;;;1999.90;999.90;;;14.80;99.90;;;;;;5075246;28;20988;-85
2021/08/17 06:34:49;;;;;;;1999.90;999.90;;;14.80;99.90;;;;;;5092269;28;20995;-84
2021/08/17 06:37:17;;;;;;;1999.90;999.90;;;14.90;99.90;;;;;;5079443;28;20541;-86
2021/08/17 06:39:44;;;;;;;1999.90;999.90;;;15.10;99.90;;;;;;5080845;28;20493;-85
2021/08/17 06:42:11;;;;;;;1999.90;999.90;;;15.10;99.90;;;;;;5076588;28;20454;-86
2021/08/17 06:44:38;;;;;;;1999.90;999.90;;;15.20;99.90;;;;;;5070885;28;20452;-85
2021/08/17 06:47:05;;;;;;;1999.90;999.90;;;15.30;99.90;;;;;;5072613;28;20452;-86
2021/08/17 06:49:32;;;;;;;1999.90;999.90;;;15.40;99.90;;;;;;5075186;28;20459;-86
2021/08/17 06:51:59;;;;;;;1999.90;999.90;;;15.40;99.90;;;;;;5075648;28;20452;-85
2021/08/17 06:54:27;;;;;;;1999.90;999.90;;;15.40;99.90;;;;;;5076999;28;20537;-86
2021/08/17 06:56:54;;;;;;;1999.90;999.90;;;15.50;99.90;;;;;;5084072;28;20477;-86
2021/08/17 06:59:20;;;;;;;1999.90;999.90;;;15.60;99.90;;;;;;5075051;28;20482;-84
2021/08/17 07:01:47;;;;;;;1999.90;999.90;;;15.90;99.90;;;;;;5074507;28;20468;-85
2021/08/17 07:04:14;;;;;;;1999.90;999.90;;;16.00;99.90;;;;;;5076482;28;20453;-85
2021/08/17 07:06:41;;;;;;;1999.90;999.90;;;16.00;99.90;;;;;;5076949;28;20807;-85
2021/08/17 07:09:08;;;;;;;1999.90;999.90;;;16.20;99.90;;;;;;5075222;28;20450;-84
2021/08/17 07:11:36;;;;;;;1999.90;999.90;;;16.40;99.90;;;;;;5081474;28;20459;-84
2021/08/17 07:14:03;;;;;;;1999.90;999.90;;;16.70;99.90;;;;;;5075024;28;21017;-84
2021/08/17 07:16:30;;;;;;;1999.90;999.90;;;16.80;99.90;;;;;;5075314;28;20435;-84
2021/08/17 07:18:57;;;;;;;1999.90;999.90;;;16.70;99.90;;;;;;5071124;28;20497;-87
2021/08/17 07:21:24;;;;;;;1999.90;999.90;;;16.60;99.90;;;;;;5071217;28;20566;-85
2021/08/17 07:23:50;;;;;;;1999.90;999.90;;;16.60;99.90;;;;;;5070175;28;20522;-84
2021/08/17 07:26:18;;;;;;;1999.90;999.90;;;16.60;99.90;;;;;;5076657;28;20536;-85
2021/08/17 07:28:47;;;;;;;1999.90;999.90;;;16.60;99.90;;;;;;5095125;28;20487;-85
2021/08/17 07:31:14;;;;;;;1999.90;999.90;;;16.60;99.90;;;;;;5082324;28;20561;-84
2021/08/17 07:33:41;;;;;;;1999.90;999.90;;;16.40;99.90;;;;;;5075237;28;20751;-84
2021/08/17 07:36:08;;;;;;;1999.90;999.90;;;16.40;99.90;;;;;;5076722;28;20823;-85
2021/08/17 07:38:35;;;;;;;1999.90;999.90;;;16.40;99.90;;;;;;5074832;28;20880;-84
2021/08/17 07:41:01;;;;;;;1999.90;999.90;;;16.40;99.90;;;;;;5085035;28;20477;-84
2021/08/17 07:43:28;;;;;;;1999.90;999.90;;;16.50;99.90;;;;;;5097252;28;20460;-84
2021/08/17 07:45:56;;;;;;;1999.90;999.90;;;16.50;99.90;;;;;;5091539;28;20542;-84
2021/08/17 07:48:23;;;;;;;1999.90;999.90;;;16.50;99.90;;;;;;5097947;28;20510;-84
2021/08/17 07:50:51;;;;;;;1999.90;999.90;;;16.50;99.90;;;;;;5090440;28;20569;-84
2021/08/17 07:53:18;;;;;;;1999.90;999.90;;;16.50;99.90;;;;;;5084819;28;20454;-85
2021/08/17 07:55:44;;;;;;;1999.90;999.90;;;16.70;99.90;;;;;;5085546;28;20492;-85
2021/08/17 07:58:11;;;;;;;1999.90;999.90;;;16.60;99.90;;;;;;5098589;28;21024;-85
2021/08/17 08:00:38;;;;;;;1999.90;999.90;;;16.60;99.90;;;;;;5079260;28;20537;-85
2021/08/17 08:03:06;;;;;;;1999.90;999.90;;;16.60;99.90;;;;;;5076686;28;20533;-84
2021/08/17 08:05:33;;;;;;;1999.90;999.90;;;16.60;99.90;;;;;;5077113;28;20451;-84
2021/08/17 08:08:00;;;;;;;1999.90;999.90;;;16.70;99.90;;;;;;5080027;28;20478;-86
2021/08/17 08:10:27;;;;;;;1999.90;999.90;;;17.00;99.90;;;;;;5079786;28;20476;-86
2021/08/17 08:12:54;;;;;;;1999.90;999.90;;;17.10;99.90;;;;;;5094990;28;20544;-85
2021/08/17 08:15:21;;;;;;;1999.90;999.90;;;17.10;99.90;;;;;;5100834;28;20541;-84
2021/08/17 08:17:48;;;;;;;1999.90;999.90;;;17.20;99.90;;;;;;5100235;28;20907;-86
2021/08/17 08:20:16;;;;;;;1999.90;999.90;;;17.20;99.90;;;;;;5100719;28;20858;-86
2021/08/17 08:22:43;;;;;;;1999.90;999.90;;;17.20;99.90;;;;;;5098815;28;20453;-84
2021/08/17 08:25:11;;;;;;;1999.90;999.90;;;17.30;99.90;;;;;;5082764;28;20551;-85
2021/08/17 08:27:38;;;;;;;1999.90;999.90;;;17.40;99.90;;;;;;5080695;28;20834;-85
2021/08/17 08:30:07;;;;;;;1999.90;999.90;;;17.40;99.90;;;;;;5081568;28;20466;-84
2021/08/17 08:32:34;;;;;;;1999.90;999.90;;;17.60;99.90;;;;;;5080981;28;20483;-85
2021/08/17 08:35:02;;;;;;;1999.90;999.90;;;17.80;99.90;;;;;;5080189;28;20456;-85
2021/08/17 08:37:30;;;;;;;1999.90;999.90;;;18.00;99.90;;;;;;5079331;28;20543;-85
2021/08/17 08:39:57;;;;;;;1999.90;999.90;;;18.30;99.90;;;;;;5091403;28;20514;-84
2021/08/17 08:42:25;;;;;;;1999.90;999.90;;;18.40;99.90;;;;;;5100763;28;20450;-84
2021/08/17 08:44:53;;;;;;;1999.90;999.90;;;18.30;99.90;;;;;;5101686;28;20449;-81
2021/08/17 08:47:21;;;;;;;1999.90;999.90;;;18.80;99.90;;;;;;5100924;28;20456;-82
2021/08/17 08:49:50;;;;;;;1999.90;999.90;;;19.00;99.90;;;;;;5100223;28;20551;-85
2021/08/17 08:52:17;;;;;;;1999.90;999.90;;;18.90;99.90;;;;;;5102195;28;20452;-85
2021/08/17 08:54:46;;;;;;;1999.90;999.90;;;19.20;99.90;;;;;;5102314;28;20521;-85
2021/08/17 08:57:13;;;;;;;1999.90;999.90;;;19.30;99.90;;;;;;5101273;28;20453;-85
2021/08/17 08:59:41;;;;;;;1999.90;999.90;;;19.40;99.90;;;;;;5087784;28;20577;-84
2021/08/17 09:02:09;;;;;;;1999.90;999.90;;;19.50;99.90;;;;;;5078416;28;20545;-86
2021/08/17 09:04:36;;;;;;;1999.90;999.90;;;19.20;99.90;;;;;;5079563;28;20524;-84
2021/08/17 09:07:04;;;;;;;1999.90;999.90;;;18.90;99.90;;;;;;5081445;28;20446;-83
2021/08/17 09:09:31;;;;;;;1999.90;999.90;;;18.50;99.90;;;;;;5099094;28;20543;-83
2021/08/17 09:12:00;;;;;;;1999.90;999.90;;;18.30;99.90;;;;;;5095774;28;20456;-85
2021/08/17 09:14:29;;;;;;;1999.90;999.90;;;18.30;99.90;;;;;;5098022;28;20456;-84
2021/08/17 09:16:59;;;;;;;1999.90;999.90;;;18.10;99.90;;;;;;5100806;28;20531;-82
2021/08/17 09:19:32;;;;;;;1999.90;999.90;;;18.00;99.90;;;;;;5100617;28;20562;-83
2021/08/17 09:22:02;;;;;;;1999.90;999.90;;;18.00;99.90;;;;;;5084269;28;20448;-83
2021/08/17 09:24:31;;;;;;;1999.90;999.90;;;18.10;99.90;;;;;;5075100;28;20495;-82
2021/08/17 09:27:02;;;;;;;1999.90;999.90;;;18.00;99.90;;;;;;5075042;28;20528;-83
2021/08/17 09:29:39;;;;;;;1999.90;999.90;;;18.10;99.90;;;;;;5074780;28;20839;-83
2021/08/17 09:32:15;;;;;;;1999.90;999.90;;;18.10;99.90;;;;;;5074507;28;20460;-83
2021/08/17 09:34:44;;;;;;;1999.90;999.90;;;18.30;99.90;;;;;;5074977;28;20450;-83
2021/08/17 09:37:11;;;;;;;1999.90;999.90;;;18.30;99.90;;;;;;5076557;28;21159;-83
2021/08/17 09:39:41;;;;;;;1999.90;999.90;;;18.30;99.90;;;;;;5083682;28;20574;-82
2021/08/17 09:42:14;;;;;;;1999.90;999.90;;;18.30;99.90;;;;;;5098291;28;20473;-83
2021/08/17 09:44:43;;;;;;;1999.90;999.90;;;18.20;99.90;;;;;;5097521;28;20458;-83
2021/08/17 09:47:10;;;;;;;1999.90;999.90;;;18.20;99.90;;;;;;5098304;28;20456;-85
2021/08/17 09:49:37;;;;;;;1999.90;999.90;;;17.90;99.90;;;;;;5091377;28;20474;-86
2021/08/17 09:52:14;;;;;;;1999.90;999.90;;;17.90;99.90;;;;;;5081737;28;20461;-85
2021/08/17 09:54:43;;;;;;;1999.90;999.90;;;18.00;99.90;;;;;;5089354;28;20449;-85
2021/08/17 09:57:12;;;;;;;1999.90;999.90;;;18.10;99.90;;;;;;5076883;28;20461;-85
2021/08/17 09:59:41;;;;;;;1999.90;999.90;;;18.30;99.90;;;;;;5073835;28;20573;-85
2021/08/17 10:02:09;;;;;;;1999.90;999.90;;;18.50;99.90;;;;;;5073465;28;20896;-85
2021/08/17 10:04:38;;;;;;;1999.90;999.90;;;18.60;99.90;;;;;;5073095;28;20515;-84
2021/08/17 10:07:06;;;;;;;1999.90;999.90;;;18.70;99.90;;;;;;5072563;28;20463;-84
2021/08/17 10:09:35;;;;;;;1999.90;999.90;;;18.80;99.90;;;;;;5080585;28;20850;-84
2021/08/17 10:12:04;;;;;;;1999.90;999.90;;;18.70;99.90;;;;;;5074923;28;20532;-86
2021/08/17 10:14:33;;;;;;;1999.90;999.90;;;18.70;99.90;;;;;;5076026;28;20427;-84
2021/08/17 10:17:00;;;;;;;1999.90;999.90;;;18.70;99.90;;;;;;5081413;28;20849;-84
2021/08/17 10:19:29;;;;;;;1999.90;999.90;;;18.50;99.90;;;;;;5094252;28;20480;-85
2021/08/17 10:21:58;;;;;;;1999.90;999.90;;;18.50;99.90;;;;;;5092750;28;20544;-84
2021/08/17 10:24:31;;;;;;;1999.90;999.90;;;18.30;99.90;;;;;;5100659;28;20445;-83
2021/08/17 10:27:23;;;;;;;1999.90;999.90;;;18.10;99.90;;;;;;5106999;28;20565;-85
2021/08/17 10:30:04;;;;;;;1999.90;999.90;;;17.90;99.90;;;;;;5096851;28;20483;-85
2021/08/17 10:32:54;;;;;;;1999.90;999.90;;;18.00;99.90;;;;;;5089301;28;20450;-85
2021/08/17 10:35:59;;;;;;;1999.90;999.90;;;18.00;99.90;;;;;;5076014;28;20542;-83
2021/08/17 10:38:49;;;;;;;1999.90;999.90;;;17.90;99.90;;;;;;5084610;28;20470;-84
2021/08/17 10:41:26;;;;;;;1999.90;999.90;;;17.90;99.90;;;;;;5078303;28;20512;-84
2021/08/17 10:44:09;;;;;;;1999.90;999.90;;;17.80;99.90;;;;;;5085407;28;20436;-84
2021/08/17 10:46:49;;;;;;;1999.90;999.90;;;18.00;99.90;;;;;;5086818;28;20499;-84
2021/08/17 10:49:28;;;;;;;1999.90;999.90;;;18.00;99.90;;;;;;5085531;28;20462;-84
2021/08/17 10:51:57;;;;;;;1999.90;999.90;;;17.90;99.90;;;;;;5083535;28;20448;-85
2021/08/17 10:54:24;;;;;;;1999.90;999.90;;;17.90;99.90;;;;;;5085298;28;20475;-84
2021/08/17 10:56:51;;;;;;;1999.90;999.90;;;18.00;99.90;;;;;;5090800;28;20487;-84
2021/08/17 10:59:40;;;;;;;1999.90;999.90;;;17.90;99.90;;;;;;5080320;28;20451;-84
2021/08/17 11:02:09;;;;;;;1999.90;999.90;;;17.80;99.90;;;;;;5071022;28;20470;-85
2021/08/17 11:04:44;;;;;;;1999.90;999.90;;;18.00;99.90;;;;;;5078404;28;20442;-84
2021/08/17 11:07:38;;;;;;;1999.90;999.90;;;18.00;99.90;;;;;;5078080;28;20455;-85
2021/08/17 11:10:08;;;;;;;1999.90;999.90;;;17.90;99.90;;;;;;5019834;28;20480;-84
2021/08/17 11:12:37;;;;;;;1999.90;999.90;;;17.90;99.90;;;;;;5077452;28;20447;-84
2021/08/17 11:15:05;;;;;;;1999.90;999.90;;;18.10;99.90;;;;;;5079030;28;20461;-86
2021/08/17 11:17:34;;;;;;;1999.90;999.90;;;18.00;99.90;;;;;;5078218;28;20486;-84
2021/08/17 11:20:01;;;;;;;1999.90;999.90;;;18.00;99.90;;;;;;5078221;28;20565;-82
2021/08/17 11:22:30;;;;;;;1999.90;999.90;;;18.20;99.90;;;;;;5079846;28;20457;-82
2021/08/17 11:24:59;;;;;;;1999.90;999.90;;;19.10;99.90;;;;;;5078620;28;20453;-84
2021/08/17 11:27:28;;;;;;;1999.90;999.90;;;18.90;99.90;;;;;;5076896;28;20537;-86
2021/08/17 11:29:56;;;;;;;1999.90;999.90;;;18.70;99.90;;;;;;5079239;28;20479;-84
2021/08/17 11:32:31;;;;;;;1999.90;999.90;;;18.60;99.90;;;;;;5080479;28;20458;-84
2021/08/17 11:35:05;;;;;;;1999.90;999.90;;;18.60;99.90;;;;;;5082124;28;20818;-84
2021/08/17 11:37:33;;;;;;;1999.90;999.90;;;18.40;99.90;;;;;;5084301;28;20461;-85
2021/08/17 11:40:03;;;;;;;1999.90;999.90;;;18.60;99.90;;;;;;5103919;28;20492;-86
2021/08/17 11:42:33;;;;;;;1999.90;999.90;;;18.70;99.90;;;;;;5104967;28;20687;-85
2021/08/17 11:45:02;;;;;;;1999.90;999.90;;;18.70;99.90;;;;;;5105622;28;20452;-85
2021/08/17 11:47:30;;;;;;;1999.90;999.90;;;18.90;99.90;;;;;;5106557;28;20509;-86
2021/08/17 11:50:00;;;;;;;1999.90;999.90;;;18.90;99.90;;;;;;5114159;28;20501;-85
2021/08/17 11:52:28;;;;;;;1999.90;999.90;;;18.80;99.90;;;;;;5099556;28;20521;-84
2021/08/17 11:54:58;;;;;;;1999.90;999.90;;;19.00;99.90;;;;;;5100954;28;20534;-83
2021/08/17 11:57:31;;;;;;;1999.90;999.90;;;19.00;99.90;;;;;;5101314;28;20483;-82
2021/08/17 12:00:05;;;;;;;1999.90;999.90;;;19.20;99.90;;;;;;5082033;28;20546;-83
2021/08/17 12:02:32;;;;;;;1999.90;999.90;;;19.00;99.90;;;;;;5076214;28;20977;-83
2021/08/17 12:05:03;;;;;;;1999.90;999.90;;;18.90;99.90;;;;;;5075335;28;20462;-82